Time;durP1;ratioP1;P1;durP2;ratioP2;P2;SDS_P1;SDS_P2;PMS_P1;PMS_P2;Temp;Humidity;BMP_temperature;BMP_pressure;BME280_temperature;BME280_humidity;BME280_pressure;Samples;Min_cycle;Max_cycle;Signal;HPM_P1;HPM_P2
2021/03/25 00:02:04;;;;;;;11.33;6.90;;;4.70;99.90;;;;;;5117016;28;20442;-81
2021/03/25 00:04:30;;;;;;;13.03;8.07;;;4.70;99.90;;;;;;5116851;28;20450;-81
2021/03/25 00:06:59;;;;;;;12.77;8.20;;;4.70;99.90;;;;;;5116715;28;20443;-81
2021/03/25 00:09:28;;;;;;;16.10;8.00;;;4.70;99.90;;;;;;5116409;28;20436;-81
2021/03/25 00:11:55;;;;;;;11.13;7.03;;;4.70;99.90;;;;;;5116672;28;20447;-81
2021/03/25 00:14:22;;;;;;;9.10;6.97;;;4.70;99.90;;;;;;5116298;28;20951;-81
2021/03/25 00:16:48;;;;;;;15.10;8.70;;;4.70;99.90;;;;;;5116246;28;20443;-81
2021/03/25 00:19:15;;;;;;;14.87;8.40;;;4.70;99.90;;;;;;5116546;28;20467;-81
2021/03/25 00:21:42;;;;;;;18.27;10.60;;;4.70;99.90;;;;;;5116523;28;20447;-81
2021/03/25 00:24:12;;;;;;;16.17;9.87;;;4.70;99.90;;;;;;5116468;28;20492;-81
2021/03/25 00:26:40;;;;;;;24.00;9.10;;;4.70;99.90;;;;;;5115972;28;20427;-81
2021/03/25 00:29:07;;;;;;;14.23;9.57;;;4.80;99.90;;;;;;5116113;28;20432;-81
2021/03/25 00:31:33;;;;;;;15.60;8.07;;;4.90;99.90;;;;;;5116290;28;20496;-81
2021/03/25 00:33:59;;;;;;;16.13;8.40;;;4.80;99.90;;;;;;5116225;28;20435;-81
2021/03/25 00:36:26;;;;;;;13.30;7.77;;;4.80;99.90;;;;;;5116200;28;20473;-81
2021/03/25 00:38:52;;;;;;;14.50;8.30;;;4.70;99.90;;;;;;5116288;28;20483;-79
2021/03/25 00:41:19;;;;;;;16.43;9.10;;;4.70;99.90;;;;;;5116182;28;20423;-79
2021/03/25 00:43:46;;;;;;;15.50;10.10;;;4.60;99.90;;;;;;5115897;28;20436;-79
2021/03/25 00:46:12;;;;;;;17.40;9.50;;;4.60;99.90;;;;;;5115823;28;20809;-79
2021/03/25 00:48:38;;;;;;;17.43;9.40;;;4.60;99.90;;;;;;5115548;28;20471;-79
2021/03/25 00:51:05;;;;;;;17.13;9.20;;;4.60;99.90;;;;;;5115742;28;20464;-79
2021/03/25 00:53:37;;;;;;;12.80;8.40;;;4.60;99.90;;;;;;5115983;28;20423;-79
2021/03/25 00:56:05;;;;;;;14.10;9.40;;;4.60;99.90;;;;;;5115503;28;20572;-79
2021/03/25 00:58:32;;;;;;;18.73;10.00;;;4.50;99.90;;;;;;5115593;28;20494;-79
2021/03/25 01:01:00;;;;;;;13.93;8.50;;;4.50;99.90;;;;;;5115433;28;20914;-79
2021/03/25 01:03:27;;;;;;;20.30;9.50;;;4.50;99.90;;;;;;5115394;28;20449;-79
2021/03/25 01:05:54;;;;;;;15.10;8.90;;;4.50;99.90;;;;;;5115708;28;20412;-79
2021/03/25 01:08:21;;;;;;;15.00;8.73;;;4.40;99.90;;;;;;5115525;28;20459;-79
2021/03/25 01:10:50;;;;;;;15.07;8.80;;;4.40;99.90;;;;;;5115173;28;20946;-79
2021/03/25 01:13:20;;;;;;;13.83;8.60;;;4.40;99.90;;;;;;5116378;28;20427;-79
2021/03/25 01:15:46;;;;;;;12.23;8.63;;;4.30;99.90;;;;;;5115526;28;20423;-79
2021/03/25 01:18:13;;;;;;;14.50;8.90;;;4.30;99.90;;;;;;5114964;28;20996;-79
2021/03/25 01:20:42;;;;;;;12.77;8.00;;;4.20;99.90;;;;;;5115381;28;20440;-79
2021/03/25 01:23:09;;;;;;;11.80;8.23;;;4.20;99.90;;;;;;5115265;28;20500;-79
2021/03/25 01:25:37;;;;;;;13.60;8.67;;;4.10;99.90;;;;;;5114976;28;20929;-78
2021/03/25 01:28:06;;;;;;;12.00;7.50;;;4.10;99.90;;;;;;5114768;28;20459;-79
2021/03/25 01:30:37;;;;;;;11.80;8.10;;;4.10;99.90;;;;;;5115126;28;20475;-79
2021/03/25 01:33:05;;;;;;;13.70;9.10;;;4.00;99.90;;;;;;5115119;28;20459;-79
2021/03/25 01:35:34;;;;;;;14.93;8.10;;;4.00;99.90;;;;;;5114792;28;20510;-79
2021/03/25 01:38:00;;;;;;;10.77;7.90;;;4.00;99.90;;;;;;5114969;28;20467;-79
2021/03/25 01:40:32;;;;;;;11.10;6.90;;;3.90;99.90;;;;;;5114956;28;20439;-79
2021/03/25 01:43:14;;;;;;;16.93;9.00;;;3.90;99.90;;;;;;5114934;28;20443;-79
2021/03/25 01:45:53;;;;;;;12.27;8.40;;;3.80;99.90;;;;;;5114908;28;20427;-79
2021/03/25 01:48:24;;;;;;;13.90;9.40;;;3.80;99.90;;;;;;5114751;28;20477;-79
2021/03/25 01:50:51;;;;;;;13.70;8.33;;;3.70;99.90;;;;;;5114785;28;20431;-79
2021/03/25 01:53:51;;;;;;;15.70;8.93;;;3.60;99.90;;;;;;5114404;28;20460;-79
2021/03/25 01:56:34;;;;;;;12.20;7.73;;;3.60;99.90;;;;;;5110996;28;20844;-79
2021/03/25 01:59:31;;;;;;;9.17;6.50;;;3.60;99.90;;;;;;5114170;28;20483;-79
2021/03/25 02:02:05;;;;;;;10.90;7.70;;;3.60;99.90;;;;;;5114540;28;20504;-79
2021/03/25 02:04:44;;;;;;;11.10;7.50;;;3.70;99.90;;;;;;5114243;28;20403;-79
2021/03/25 02:07:22;;;;;;;13.30;6.80;;;3.80;99.90;;;;;;5114372;28;20463;-79
2021/03/25 02:09:54;;;;;;;10.83;7.20;;;3.80;99.90;;;;;;5115068;28;20423;-79
2021/03/25 02:12:30;;;;;;;8.17;6.80;;;3.80;99.90;;;;;;5114406;28;20427;-79
2021/03/25 02:15:06;;;;;;;11.40;6.60;;;3.80;99.90;;;;;;5114364;28;20433;-79
2021/03/25 02:17:38;;;;;;;11.33;6.73;;;3.90;99.90;;;;;;5114055;28;20488;-85
2021/03/25 02:20:31;;;;;;;8.27;5.60;;;4.00;99.90;;;;;;5114341;28;20466;-85
2021/03/25 02:23:30;;;;;;;8.83;5.67;;;4.10;99.90;;;;;;5114109;28;20424;-85
2021/03/25 02:26:02;;;;;;;7.97;5.80;;;4.30;99.90;;;;;;5088485;28;20961;-85
2021/03/25 02:28:42;;;;;;;9.17;5.77;;;4.30;99.90;;;;;;5114088;28;20459;-85
2021/03/25 02:31:14;;;;;;;7.20;5.03;;;4.40;99.90;;;;;;5114269;28;20826;-85
2021/03/25 02:33:45;;;;;;;7.33;5.60;;;4.40;99.90;;;;;;5114229;28;20794;-85
2021/03/25 02:36:13;;;;;;;9.50;4.83;;;4.50;99.90;;;;;;5114131;28;20423;-85
2021/03/25 02:38:44;;;;;;;7.13;4.80;;;4.50;99.90;;;;;;5114718;28;20535;-86
2021/03/25 02:41:15;;;;;;;9.20;5.57;;;4.50;99.90;;;;;;5114107;28;20432;-85
2021/03/25 02:43:46;;;;;;;6.17;5.03;;;4.60;99.90;;;;;;5114047;28;20431;-85
2021/03/25 02:46:18;;;;;;;12.70;4.60;;;4.70;99.90;;;;;;5114076;28;20431;-85
2021/03/25 02:48:48;;;;;;;6.90;5.20;;;4.70;99.90;;;;;;5113881;28;20516;-85
2021/03/25 02:51:18;;;;;;;8.13;5.10;;;4.70;99.90;;;;;;5113972;28;20427;-85
2021/03/25 02:53:46;;;;;;;13.40;7.57;;;4.70;99.90;;;;;;5113920;28;20850;-85
2021/03/25 02:56:18;;;;;;;18.20;6.80;;;4.60;99.90;;;;;;5113386;28;20471;-85
2021/03/25 02:58:48;;;;;;;9.47;5.60;;;4.60;99.90;;;;;;5113737;28;20478;-86
2021/03/25 03:01:17;;;;;;;7.73;5.17;;;4.50;99.90;;;;;;5113838;28;20821;-85
2021/03/25 03:03:47;;;;;;;5.10;4.60;;;4.50;99.90;;;;;;5113813;28;20450;-85
2021/03/25 03:06:19;;;;;;;7.20;5.37;;;4.50;99.90;;;;;;5114482;28;20496;-85
2021/03/25 03:08:48;;;;;;;6.90;5.10;;;4.60;99.90;;;;;;5116142;28;20458;-85
2021/03/25 03:11:18;;;;;;;9.53;6.93;;;4.60;99.90;;;;;;5117926;28;20427;-85
2021/03/25 03:13:49;;;;;;;13.63;8.40;;;4.50;99.90;;;;;;5117989;28;20419;-85
2021/03/25 03:16:22;;;;;;;13.83;8.93;;;4.30;99.90;;;;;;5117908;28;20427;-86
2021/03/25 03:18:53;;;;;;;12.30;7.40;;;4.20;99.90;;;;;;5117435;28;20989;-85
2021/03/25 03:21:23;;;;;;;10.00;7.50;;;4.00;99.90;;;;;;5117798;28;20476;-85
2021/03/25 03:23:51;;;;;;;12.10;7.77;;;3.90;99.90;;;;;;5117715;28;20435;-85
2021/03/25 03:26:23;;;;;;;9.07;6.10;;;3.90;99.90;;;;;;5117483;28;20451;-81
2021/03/25 03:28:55;;;;;;;11.20;7.07;;;3.80;99.90;;;;;;5117410;28;20458;-80
2021/03/25 03:31:24;;;;;;;5.50;4.90;;;3.80;99.90;;;;;;5117473;28;20434;-81
2021/03/25 03:33:55;;;;;;;8.17;4.70;;;3.70;99.90;;;;;;5117089;28;20942;-80
2021/03/25 03:36:24;;;;;;;10.60;7.30;;;3.70;99.90;;;;;;5120180;28;20430;-81
2021/03/25 03:38:55;;;;;;;10.47;7.43;;;3.70;99.90;;;;;;5118330;28;20841;-81
2021/03/25 03:41:25;;;;;;;8.73;6.67;;;3.60;99.90;;;;;;5117292;28;20454;-81
2021/03/25 03:43:52;;;;;;;9.83;5.33;;;3.60;99.90;;;;;;5117031;28;20906;-81
2021/03/25 03:46:25;;;;;;;8.80;5.73;;;3.60;99.90;;;;;;5117212;28;20446;-81
2021/03/25 03:48:56;;;;;;;5.60;4.63;;;3.60;99.90;;;;;;5117123;28;20463;-81
2021/03/25 03:51:26;;;;;;;8.97;6.10;;;3.70;99.90;;;;;;5117153;28;20435;-81
2021/03/25 03:53:54;;;;;;;10.60;6.80;;;3.70;99.90;;;;;;5117108;28;20432;-77
2021/03/25 03:56:28;;;;;;;9.50;7.23;;;3.70;99.90;;;;;;5116676;28;20470;-77
2021/03/25 03:58:56;;;;;;;11.30;7.10;;;3.70;99.90;;;;;;5116514;28;21001;-77
2021/03/25 04:01:32;;;;;;;11.23;7.60;;;3.70;99.90;;;;;;5116921;28;20443;-78
2021/03/25 04:04:03;;;;;;;10.43;7.30;;;3.70;99.90;;;;;;5116592;28;20907;-78
2021/03/25 04:06:36;;;;;;;11.40;7.77;;;3.60;99.90;;;;;;5116875;28;20423;-78
2021/03/25 04:09:08;;;;;;;9.83;7.67;;;3.50;99.90;;;;;;5116764;28;20463;-78
2021/03/25 04:11:38;;;;;;;12.80;8.20;;;3.50;99.90;;;;;;5116717;28;20435;-78
2021/03/25 04:14:08;;;;;;;12.40;7.87;;;3.50;99.90;;;;;;5116374;28;20427;-78
2021/03/25 04:16:37;;;;;;;11.20;7.77;;;3.40;99.90;;;;;;5116654;28;20451;-78
2021/03/25 04:19:11;;;;;;;14.70;8.40;;;3.40;99.90;;;;;;5115794;28;20478;-78
2021/03/25 04:21:41;;;;;;;9.33;6.90;;;3.40;99.90;;;;;;5116718;28;20504;-86
2021/03/25 04:24:13;;;;;;;11.00;7.07;;;3.40;99.90;;;;;;5116541;28;20462;-85
2021/03/25 04:26:43;;;;;;;7.30;5.80;;;3.40;99.90;;;;;;5116160;28;20910;-86
2021/03/25 04:29:15;;;;;;;8.53;6.60;;;3.40;99.90;;;;;;5116506;28;20434;-85
2021/03/25 04:31:42;;;;;;;11.67;5.97;;;3.40;99.90;;;;;;5116535;28;20902;-86
2021/03/25 04:34:09;;;;;;;8.33;5.57;;;3.40;99.90;;;;;;5116469;28;20443;-86
2021/03/25 04:36:38;;;;;;;9.90;4.47;;;3.30;99.90;;;;;;5116058;28;20435;-86
2021/03/25 04:39:07;;;;;;;7.43;4.70;;;3.30;99.90;;;;;;5116262;28;20471;-85
2021/03/25 04:41:35;;;;;;;6.40;4.90;;;3.50;99.90;;;;;;5116327;28;20500;-86
2021/03/25 04:44:06;;;;;;;5.30;4.73;;;3.60;99.90;;;;;;5116218;28;20822;-86
2021/03/25 04:46:47;;;;;;;9.00;5.20;;;3.60;99.90;;;;;;5116141;28;20442;-85
2021/03/25 04:49:20;;;;;;;7.17;5.27;;;3.60;99.90;;;;;;5116156;28;20785;-85
2021/03/25 04:51:46;;;;;;;10.00;4.93;;;3.60;99.90;;;;;;5115781;28;20915;-85
2021/03/25 04:54:26;;;;;;;14.70;5.13;;;3.60;99.90;;;;;;5116035;28;20461;-85
2021/03/25 04:56:54;;;;;;;4.97;4.13;;;3.60;99.90;;;;;;5115439;28;21087;-85
2021/03/25 04:59:22;;;;;;;6.43;4.00;;;3.60;99.90;;;;;;5115890;28;20993;-85
2021/03/25 05:01:49;;;;;;;4.77;4.10;;;3.60;99.90;;;;;;5115845;28;20807;-85
2021/03/25 05:04:15;;;;;;;5.53;3.93;;;3.70;99.90;;;;;;5115787;28;20861;-85
2021/03/25 05:06:50;;;;;;;6.37;4.00;;;3.70;99.90;;;;;;5115504;28;20432;-85
2021/03/25 05:09:17;;;;;;;7.30;4.10;;;3.70;99.90;;;;;;5115743;28;20476;-85
2021/03/25 05:11:45;;;;;;;9.50;5.30;;;3.70;99.90;;;;;;5115754;28;20442;-86
2021/03/25 05:14:17;;;;;;;9.97;4.80;;;3.70;99.90;;;;;;5116303;28;20443;-86
2021/03/25 05:16:54;;;;;;;7.90;4.40;;;3.70;99.90;;;;;;5115534;28;20428;-86
2021/03/25 05:19:31;;;;;;;10.50;5.37;;;3.60;99.90;;;;;;5115439;28;20474;-86
2021/03/25 05:22:08;;;;;;;11.20;7.50;;;3.60;99.90;;;;;;5115475;28;20431;-86
2021/03/25 05:24:38;;;;;;;8.03;5.50;;;3.50;99.90;;;;;;5115476;28;20431;-86
2021/03/25 05:27:09;;;;;;;6.47;4.20;;;3.50;99.90;;;;;;5115224;28;20536;-86
2021/03/25 05:29:38;;;;;;;7.40;5.00;;;3.50;99.90;;;;;;5115358;28;20427;-86
2021/03/25 05:32:07;;;;;;;6.70;5.13;;;3.50;99.90;;;;;;5115121;28;20447;-85
2021/03/25 05:34:34;;;;;;;9.83;6.80;;;3.50;99.90;;;;;;5115308;28;20902;-85
2021/03/25 05:37:01;;;;;;;8.00;5.67;;;3.50;99.90;;;;;;5115213;28;20471;-85
2021/03/25 05:39:27;;;;;;;10.37;7.27;;;3.50;99.90;;;;;;5114721;28;20535;-86
2021/03/25 05:42:08;;;;;;;9.73;7.07;;;3.50;99.90;;;;;;5114696;28;21008;-85
2021/03/25 05:45:04;;;;;;;12.40;7.60;;;3.50;99.90;;;;;;5115099;28;20442;-86
2021/03/25 05:47:46;;;;;;;7.67;6.50;;;3.60;99.90;;;;;;5114864;28;20475;-86
2021/03/25 05:50:25;;;;;;;12.40;8.73;;;3.60;99.90;;;;;;5115034;28;20532;-86
2021/03/25 05:53:01;;;;;;;12.33;8.67;;;3.60;99.90;;;;;;5114629;28;20929;-86
2021/03/25 05:55:48;;;;;;;14.40;9.27;;;3.60;99.90;;;;;;5114639;28;20536;-86
2021/03/25 05:58:30;;;;;;;9.90;6.07;;;3.60;99.90;;;;;;5114746;28;20469;-85
2021/03/25 06:01:04;;;;;;;4.67;3.90;;;3.60;99.90;;;;;;5114863;28;20403;-86
2021/03/25 06:03:34;;;;;;;4.97;3.97;;;3.70;99.90;;;;;;5114480;28;20430;-86
2021/03/25 06:06:02;;;;;;;5.87;3.40;;;3.90;99.90;;;;;;5114774;28;20435;-86
2021/03/25 06:08:42;;;;;;;9.80;5.90;;;4.10;99.90;;;;;;5114269;28;20455;-86
2021/03/25 06:11:22;;;;;;;6.83;5.43;;;4.20;99.90;;;;;;5114657;28;20434;-78
2021/03/25 06:14:16;;;;;;;5.23;3.87;;;4.30;99.90;;;;;;5114396;28;20470;-78
2021/03/25 06:17:10;;;;;;;4.67;3.40;;;4.50;99.90;;;;;;5113977;28;20759;-78
2021/03/25 06:20:04;;;;;;;5.30;3.40;;;4.70;99.90;;;;;;5114033;28;20934;-78
2021/03/25 06:22:35;;;;;;;3.70;3.03;;;4.90;99.90;;;;;;5114522;28;20427;-78
2021/03/25 06:25:22;;;;;;;5.07;3.30;;;5.10;99.90;;;;;;5114771;28;20426;-78
2021/03/25 06:28:03;;;;;;;6.90;5.00;;;5.50;99.90;;;;;;5114115;28;20458;-78
2021/03/25 06:30:34;;;;;;;4.60;3.27;;;6.20;99.90;;;;;;5114426;28;20431;-78
2021/03/25 06:33:09;;;;;;;5.40;3.40;;;6.90;99.90;;;;;;5113703;28;20800;-78
2021/03/25 06:35:40;;;;;;;4.47;3.23;;;7.60;99.90;;;;;;5114073;28;20427;-78
2021/03/25 06:38:15;;;;;;;5.00;3.37;;;7.70;99.90;;;;;;5113965;28;20559;-78
2021/03/25 06:40:45;;;;;;;6.37;3.70;;;7.70;99.90;;;;;;5113947;28;20519;-78
2021/03/25 06:43:15;;;;;;;3.83;3.07;;;7.70;99.90;;;;;;5113434;28;20427;-78
2021/03/25 06:45:45;;;;;;;3.73;3.37;;;7.60;99.90;;;;;;5113615;28;20911;-78
2021/03/25 06:48:15;;;;;;;4.30;3.53;;;7.40;99.90;;;;;;5113471;28;20467;-78
2021/03/25 06:50:46;;;;;;;5.13;3.30;;;7.40;99.90;;;;;;5113800;28;20457;-78
2021/03/25 06:53:26;;;;;;;3.30;3.00;;;7.20;99.90;;;;;;5113942;28;20477;-78
2021/03/25 06:55:56;;;;;;;3.40;3.00;;;7.10;99.90;;;;;;5113493;28;20577;-78
2021/03/25 06:58:27;;;;;;;6.17;3.60;;;7.10;99.90;;;;;;5113743;28;20467;-78
2021/03/25 07:00:58;;;;;;;4.17;3.60;;;7.20;99.90;;;;;;5113730;28;20826;-78
2021/03/25 07:03:26;;;;;;;4.73;3.27;;;7.10;99.90;;;;;;5113726;28;20435;-78
2021/03/25 07:05:54;;;;;;;4.17;3.43;;;7.20;99.90;;;;;;5113646;28;20453;-79
2021/03/25 07:08:23;;;;;;;5.70;3.10;;;7.20;99.90;;;;;;5113595;28;20474;-77
2021/03/25 07:10:51;;;;;;;3.70;3.27;;;7.30;99.90;;;;;;5113645;28;20415;-78
2021/03/25 07:13:31;;;;;;;6.80;3.07;;;7.40;99.90;;;;;;5113736;28;20415;-78
2021/03/25 07:15:58;;;;;;;4.10;2.93;;;7.50;99.90;;;;;;5113395;28;20434;-81
2021/03/25 07:18:33;;;;;;;4.53;3.40;;;7.60;99.90;;;;;;5113629;28;20463;-81
2021/03/25 07:21:29;;;;;;;4.73;3.30;;;7.70;99.90;;;;;;5113487;28;20471;-81
2021/03/25 07:23:56;;;;;;;5.07;3.37;;;7.80;99.90;;;;;;5111980;28;20458;-77
2021/03/25 07:26:29;;;;;;;7.57;3.73;;;8.00;99.90;;;;;;5113363;28;20803;-78
2021/03/25 07:29:13;;;;;;;5.83;3.30;;;8.10;99.90;;;;;;5113216;28;21015;-78
2021/03/25 07:31:43;;;;;;;5.37;4.30;;;8.10;99.90;;;;;;5113638;28;20460;-79
2021/03/25 07:34:10;;;;;;;4.70;3.33;;;8.10;99.90;;;;;;5113555;28;20431;-79
2021/03/25 07:36:50;;;;;;;4.07;3.63;;;8.20;99.90;;;;;;5113332;28;20423;-78
2021/03/25 07:39:22;;;;;;;4.93;4.10;;;8.40;99.90;;;;;;5113518;28;20470;-78
2021/03/25 07:41:51;;;;;;;3.33;3.00;;;8.50;99.90;;;;;;5113770;28;20427;-79
2021/03/25 07:44:31;;;;;;;3.77;2.80;;;8.70;99.90;;;;;;5113444;28;20941;-85
2021/03/25 07:47:01;;;;;;;4.13;3.10;;;8.80;99.90;;;;;;5113479;28;20418;-81
2021/03/25 07:49:29;;;;;;;5.17;3.10;;;9.00;99.70;;;;;;5113162;28;20458;-81
2021/03/25 07:51:58;;;;;;;4.70;3.20;;;9.30;98.70;;;;;;5113426;28;20478;-81
2021/03/25 07:54:31;;;;;;;3.07;2.73;;;9.40;98.30;;;;;;5114855;28;20450;-78
2021/03/25 07:57:10;;;;;;;3.43;2.57;;;9.60;97.90;;;;;;5116701;28;20498;-82
2021/03/25 07:59:41;;;;;;;2.70;2.50;;;9.70;96.80;;;;;;5116846;28;20973;-78
2021/03/25 08:02:27;;;;;;;3.33;2.60;;;9.80;95.30;;;;;;5117031;28;20462;-78
2021/03/25 08:04:54;;;;;;;4.20;3.27;;;10.00;93.90;;;;;;5117095;28;20531;-85
2021/03/25 08:07:22;;;;;;;3.53;2.93;;;10.10;93.90;;;;;;5116760;28;20474;-79
2021/03/25 08:09:52;;;;;;;3.80;3.50;;;10.30;93.80;;;;;;5117309;28;20522;-79
2021/03/25 08:12:23;;;;;;;5.47;2.70;;;10.50;93.70;;;;;;5116781;28;20428;-78
2021/03/25 08:14:50;;;;;;;4.00;3.00;;;10.70;93.60;;;;;;5116776;28;20434;-85
2021/03/25 08:17:26;;;;;;;3.70;2.70;;;11.00;91.90;;;;;;5116934;28;20473;-85
2021/03/25 08:20:03;;;;;;;4.53;2.97;;;11.20;91.30;;;;;;5116591;28;20520;-85
2021/03/25 08:22:58;;;;;;;3.03;2.67;;;11.40;90.90;;;;;;5116714;28;20503;-81
2021/03/25 08:25:39;;;;;;;4.17;2.60;;;11.60;88.40;;;;;;5110570;28;20846;-82
2021/03/25 08:28:25;;;;;;;3.10;2.43;;;11.90;86.10;;;;;;5116951;28;20542;-78
2021/03/25 08:31:04;;;;;;;3.87;2.50;;;12.00;87.00;;;;;;5116322;28;20910;-81
2021/03/25 08:33:53;;;;;;;2.73;2.43;;;12.20;86.00;;;;;;5116685;28;20439;-78
2021/03/25 08:36:24;;;;;;;3.17;2.60;;;12.40;83.40;;;;;;5116176;28;20431;-80
2021/03/25 08:39:16;;;;;;;3.30;2.60;;;12.70;83.80;;;;;;5115881;28;20473;-79
2021/03/25 08:41:48;;;;;;;3.20;2.63;;;12.70;80.10;;;;;;5116092;28;20428;-80
2021/03/25 08:44:25;;;;;;;5.63;2.63;;;12.90;78.20;;;;;;5116288;28;20434;-81
2021/03/25 08:46:56;;;;;;;7.40;3.03;;;13.20;79.50;;;;;;5116196;28;20835;-82
2021/03/25 08:49:37;;;;;;;2.97;2.50;;;13.50;78.10;;;;;;5116070;28;21004;-79
2021/03/25 08:52:09;;;;;;;3.80;2.57;;;13.80;75.20;;;;;;5116561;28;20518;-79
2021/03/25 08:54:40;;;;;;;4.67;3.03;;;13.90;74.40;;;;;;5115982;28;20439;-79
2021/03/25 08:57:16;;;;;;;3.50;3.00;;;14.00;73.20;;;;;;5115449;28;20519;-79
2021/03/25 08:59:46;;;;;;;4.40;3.13;;;14.40;71.50;;;;;;5115458;28;20470;-80
2021/03/25 09:02:21;;;;;;;3.33;2.70;;;14.80;70.20;;;;;;5116168;28;20439;-88
2021/03/25 09:04:52;;;;;;;4.77;2.93;;;15.20;67.70;;;;;;5116359;28;20437;-88
2021/03/25 09:07:19;;;;;;;3.90;3.10;;;16.30;65.70;;;;;;5115901;28;20477;-88
2021/03/25 09:09:50;;;;;;;2.90;2.60;;;18.00;61.30;;;;;;5116054;28;20438;-87
2021/03/25 09:12:21;;;;;;;4.23;3.30;;;19.60;56.30;;;;;;5116125;28;20431;-87
2021/03/25 09:14:48;;;;;;;3.50;2.83;;;21.00;52.10;;;;;;5116053;28;20431;-88
2021/03/25 09:17:17;;;;;;;3.93;2.73;;;22.40;48.70;;;;;;5115651;28;20477;-88
2021/03/25 09:19:48;;;;;;;2.58;2.10;;;23.50;46.60;;;;;;5115536;28;20801;-88
2021/03/25 09:22:44;;;;;;;3.25;2.70;;;23.70;43.90;;;;;;5115886;28;20185;-89
2021/03/25 09:25:37;;;;;;;2.50;2.30;;;24.20;43.00;;;;;;5115735;28;20184;-88
2021/03/25 09:28:10;;;;;;;3.17;2.85;;;24.20;42.20;;;;;;5115185;28;20221;-88
2021/03/25 09:30:40;;;;;;;4.60;2.72;;;24.00;42.20;;;;;;5115402;28;20184;-88
2021/03/25 09:33:40;;;;;;;3.15;2.20;;;23.40;40.50;;;;;;5115500;28;20185;-88
2021/03/25 09:36:49;;;;;;;3.90;3.10;;;23.10;42.30;;;;;;5116183;28;20539;-88
2021/03/25 09:39:31;;;;;;;3.50;2.65;;;23.40;41.10;;;;;;5115411;28;20212;-88
2021/03/25 09:42:03;;;;;;;4.47;2.97;;;23.50;40.60;;;;;;5115388;28;20192;-88
2021/03/25 09:44:34;;;;;;;3.15;2.53;;;23.60;40.10;;;;;;5115420;28;20208;-88
2021/03/25 09:47:19;;;;;;;3.13;2.80;;;23.80;41.00;;;;;;5114887;28;20897;-88
2021/03/25 09:49:48;;;;;;;3.63;3.03;;;24.40;40.70;;;;;;5115126;28;20193;-88
2021/03/25 09:52:30;;;;;;;2.85;2.65;;;24.70;40.20;;;;;;5115123;28;20238;-87
2021/03/25 09:55:20;;;;;;;4.43;3.45;;;25.60;39.80;;;;;;5113184;28;20244;-88
2021/03/25 09:57:47;;;;;;;3.47;2.83;;;25.70;38.40;;;;;;5114607;28;20787;-88
2021/03/25 10:00:54;;;;;;;6.18;3.78;;;25.50;37.80;;;;;;5114952;28;20305;-88
2021/03/25 10:04:05;;;;;;;4.00;3.30;;;25.80;39.60;;;;;;5114955;28;20204;-88
2021/03/25 10:06:58;;;;;;;5.65;4.20;;;25.80;38.90;;;;;;5114601;28;20280;-89
2021/03/25 10:09:50;;;;;;;4.85;4.45;;;26.00;39.50;;;;;;5114576;28;20202;-89
2021/03/25 10:12:52;;;;;;;4.70;4.22;;;26.60;37.10;;;;;;5114694;28;20203;-87
2021/03/25 10:15:49;;;;;;;4.88;3.97;;;26.40;38.10;;;;;;5114555;28;20202;-86
2021/03/25 10:18:53;;;;;;;6.70;4.13;;;26.50;36.30;;;;;;5114285;28;20564;-83
2021/03/25 10:22:02;;;;;;;4.40;3.40;;;26.20;37.20;;;;;;5114047;28;20323;-84
2021/03/25 10:24:53;;;;;;;4.15;3.58;;;25.80;37.30;;;;;;5112949;28;20205;-86
2021/03/25 10:27:31;;;;;;;5.28;4.65;;;26.30;37.50;;;;;;5111528;28;20224;-85
2021/03/25 10:30:04;;;;;;;6.45;4.10;;;25.90;37.70;;;;;;5114330;28;20205;-86
2021/03/25 10:32:42;;;;;;;5.15;3.75;;;26.20;37.00;;;;;;5113844;28;20651;-86
2021/03/25 10:35:16;;;;;;;3.97;3.58;;;26.00;36.40;;;;;;5115045;28;20192;-86
2021/03/25 10:37:49;;;;;;;4.15;3.80;;;25.60;38.20;;;;;;5114222;28;20224;-88
2021/03/25 10:40:21;;;;;;;7.05;4.15;;;25.70;37.90;;;;;;5114404;28;20292;-87
2021/03/25 10:42:57;;;;;;;4.57;3.90;;;25.90;37.60;;;;;;5113953;28;20640;-87
2021/03/25 10:45:29;;;;;;;7.07;3.97;;;26.80;37.20;;;;;;5114166;28;20184;-87
2021/03/25 10:47:59;;;;;;;4.60;3.40;;;27.60;37.50;;;;;;5114005;28;20273;-85
2021/03/25 10:50:31;;;;;;;4.40;3.67;;;28.40;34.60;;;;;;5114180;28;20204;-88
2021/03/25 10:53:01;;;;;;;7.53;4.13;;;28.80;34.10;;;;;;5113860;28;20350;-88
2021/03/25 10:55:30;;;;;;;5.80;4.35;;;29.50;33.40;;;;;;5113591;28;20733;-87
2021/03/25 10:58:02;;;;;;;6.13;4.20;;;30.00;34.00;;;;;;5113599;28;20719;-88
2021/03/25 11:00:33;;;;;;;3.88;3.50;;;30.50;31.90;;;;;;5113946;28;20564;-88
2021/03/25 11:03:02;;;;;;;3.88;3.50;;;30.70;32.30;;;;;;5113927;28;20189;-88
2021/03/25 11:05:31;;;;;;;3.33;3.03;;;30.70;31.80;;;;;;5114031;28;20181;-88
2021/03/25 11:07:59;;;;;;;3.25;3.05;;;29.50;30.90;;;;;;5113561;28;20714;-88
2021/03/25 11:10:28;;;;;;;3.50;3.20;;;27.80;32.50;;;;;;5113972;28;20209;-87
2021/03/25 11:12:58;;;;;;;3.58;2.40;;;26.60;33.60;;;;;;5113682;28;20188;-88
2021/03/25 11:15:31;;;;;;;4.85;2.80;;;25.60;36.50;;;;;;5114044;28;20184;-88
2021/03/25 11:18:00;;;;;;;3.53;3.22;;;25.10;36.90;;;;;;5113788;28;20229;-87
2021/03/25 11:20:28;;;;;;;4.38;3.67;;;24.10;37.60;;;;;;5113841;28;20189;-88
2021/03/25 11:22:56;;;;;;;6.50;3.38;;;23.40;39.30;;;;;;5113988;28;20277;-87
2021/03/25 11:25:28;;;;;;;4.28;3.72;;;23.10;39.50;;;;;;5113696;28;20248;-88
2021/03/25 11:28:02;;;;;;;3.00;1.83;;;22.10;40.90;;;;;;5113555;28;20737;-80
2021/03/25 11:30:34;;;;;;;3.37;2.67;;;21.80;40.50;;;;;;5116758;28;20204;-80
2021/03/25 11:33:02;;;;;;;4.93;3.20;;;21.50;41.20;;;;;;5118439;28;20546;-84
2021/03/25 11:35:43;;;;;;;5.83;3.47;;;21.40;42.30;;;;;;5118382;28;20477;-82
2021/03/25 11:38:19;;;;;;;3.20;2.90;;;21.10;43.50;;;;;;5117627;28;20481;-83
2021/03/25 11:40:48;;;;;;;8.23;3.47;;;21.00;43.90;;;;;;5117462;28;20905;-85
2021/03/25 11:43:18;;;;;;;6.20;4.60;;;21.10;43.70;;;;;;5117634;28;20423;-87
2021/03/25 11:45:47;;;;;;;6.30;4.83;;;21.20;44.40;;;;;;5117754;28;20411;-87
2021/03/25 11:48:18;;;;;;;6.00;4.10;;;21.00;43.30;;;;;;5117496;28;20458;-88
2021/03/25 11:50:46;;;;;;;7.60;4.00;;;21.00;43.30;;;;;;5117449;28;21082;-79
2021/03/25 11:53:32;;;;;;;7.73;3.90;;;20.80;43.10;;;;;;5117378;28;20434;-87
2021/03/25 11:55:58;;;;;;;5.23;3.80;;;20.80;44.80;;;;;;5116911;28;20474;-81
2021/03/25 11:58:25;;;;;;;5.33;3.20;;;20.70;43.90;;;;;;5117032;28;20466;-87
2021/03/25 12:01:18;;;;;;;5.60;3.90;;;20.60;43.60;;;;;;5117169;28;20411;-80
2021/03/25 12:03:49;;;;;;;6.97;3.40;;;20.50;43.70;;;;;;5117143;28;20419;-80
2021/03/25 12:06:24;;;;;;;5.47;4.00;;;20.50;44.10;;;;;;5117030;28;20404;-82
2021/03/25 12:09:12;;;;;;;6.63;4.10;;;20.40;43.60;;;;;;5116557;28;20466;-82
2021/03/25 12:11:41;;;;;;;11.20;5.73;;;20.00;44.40;;;;;;5116877;28;20434;-82
2021/03/25 12:14:08;;;;;;;6.23;4.13;;;19.70;44.70;;;;;;5116671;28;20816;-87
2021/03/25 12:16:36;;;;;;;4.13;3.07;;;19.80;45.90;;;;;;5117662;28;20521;-87
2021/03/25 12:19:03;;;;;;;3.30;3.00;;;19.60;44.50;;;;;;5116943;28;20826;-82
2021/03/25 12:21:30;;;;;;;2.90;2.40;;;19.70;43.90;;;;;;5116795;28;20430;-82
2021/03/25 12:23:59;;;;;;;2.80;2.50;;;19.80;43.80;;;;;;5116641;28;20428;-82
2021/03/25 12:26:26;;;;;;;3.63;2.87;;;19.70;43.00;;;;;;5116575;28;20450;-80
2021/03/25 12:28:53;;;;;;;4.70;2.40;;;19.70;44.10;;;;;;5116301;28;20475;-81
2021/03/25 12:31:21;;;;;;;3.57;3.27;;;19.70;44.90;;;;;;5116523;28;20454;-82
2021/03/25 12:33:48;;;;;;;2.87;2.50;;;19.60;45.30;;;;;;5116252;28;20412;-82
2021/03/25 12:36:15;;;;;;;4.27;2.93;;;19.40;45.40;;;;;;5116456;28;20833;-82
2021/03/25 12:38:42;;;;;;;1.57;1.40;;;19.20;46.30;;;;;;5116380;28;20492;-87
2021/03/25 12:41:15;;;;;;;2.40;1.40;;;19.30;44.00;;;;;;5116687;28;20448;-83
2021/03/25 12:43:41;;;;;;;2.70;2.10;;;19.10;42.80;;;;;;5116201;28;20440;-80
2021/03/25 12:46:09;;;;;;;1.93;1.40;;;18.90;44.00;;;;;;5115978;28;20442;-87
2021/03/25 12:48:36;;;;;;;1.20;1.10;;;18.80;42.90;;;;;;5116277;28;20451;-88
2021/03/25 12:51:06;;;;;;;2.07;1.33;;;18.80;42.10;;;;;;5116146;28;20470;-81
2021/03/25 12:53:34;;;;;;;1.70;1.30;;;18.70;40.80;;;;;;5116125;28;20441;-83
2021/03/25 12:56:02;;;;;;;2.13;1.20;;;18.50;41.70;;;;;;5115693;28;20475;-80
2021/03/25 12:58:33;;;;;;;1.60;1.40;;;18.50;42.60;;;;;;5115878;28;20455;-88
2021/03/25 13:01:02;;;;;;;1.40;1.30;;;18.70;43.30;;;;;;5116018;28;20439;-82
2021/03/25 13:03:29;;;;;;;2.50;1.63;;;18.90;44.90;;;;;;5115800;28;20481;-82
2021/03/25 13:05:55;;;;;;;1.73;1.63;;;19.10;43.30;;;;;;5115493;28;20903;-82
2021/03/25 13:08:23;;;;;;;3.00;2.30;;;19.20;42.30;;;;;;5115657;28;20467;-82
2021/03/25 13:10:49;;;;;;;3.80;2.33;;;19.30;43.60;;;;;;5115346;28;20997;-82
2021/03/25 13:13:16;;;;;;;2.50;2.30;;;19.30;45.50;;;;;;5115627;28;20485;-82
2021/03/25 13:15:42;;;;;;;3.00;2.63;;;19.40;45.80;;;;;;5115584;28;20482;-82
2021/03/25 13:18:09;;;;;;;3.70;2.70;;;19.40;45.60;;;;;;5115461;28;20485;-82
2021/03/25 13:20:35;;;;;;;2.97;2.30;;;19.30;45.40;;;;;;5115586;28;20431;-82
2021/03/25 13:23:02;;;;;;;4.10;2.77;;;19.20;46.30;;;;;;5115465;28;20424;-82